sensor_id;sensor_type;location;lat;lon;timestamp;pressure;altitude;pressure_sealevel;temperature;humidity
6096;BME280;25081;42.698;23.298;2023-05-21T00:01:28;95120.40;;;13.80;99.08
6096;BME280;25081;42.698;23.298;2023-05-21T00:03:38;95117.12;;;13.75;99.31
6096;BME280;25081;42.698;23.298;2023-05-21T00:05:49;95113.20;;;13.80;99.17
6096;BME280;25081;42.698;23.298;2023-05-21T00:07:59;95113.20;;;13.80;99.45
6096;BME280;25081;42.698;23.298;2023-05-21T00:10:10;95106.26;;;13.82;99.18
6096;BME280;25081;42.698;23.298;2023-05-21T00:12:21;95110.80;;;13.81;98.70
6096;BME280;25081;42.698;23.298;2023-05-21T00:14:31;95106.44;;;13.78;99.56
6096;BME280;25081;42.698;23.298;2023-05-21T00:16:42;95105.09;;;13.78;99.24
6096;BME280;25081;42.698;23.298;2023-05-21T00:18:53;95106.55;;;13.68;99.49
6096;BME280;25081;42.698;23.298;2023-05-21T00:21:03;95100.34;;;13.65;99.83
6096;BME280;25081;42.698;23.298;2023-05-21T00:23:14;95095.23;;;13.64;100.00
6096;BME280;25081;42.698;23.298;2023-05-21T00:25:25;95100.23;;;13.60;100.00
6096;BME280;25081;42.698;23.298;2023-05-21T00:27:35;95101.11;;;13.49;100.00
6096;BME280;25081;42.698;23.298;2023-05-21T00:29:46;95099.79;;;13.35;100.00
6096;BME280;25081;42.698;23.298;2023-05-21T00:31:56;95108.77;;;13.29;100.00
6096;BME280;25081;42.698;23.298;2023-05-21T00:34:07;95103.05;;;13.23;100.00
6096;BME280;25081;42.698;23.298;2023-05-21T00:36:18;95102.91;;;13.17;100.00
6096;BME280;25081;42.698;23.298;2023-05-21T00:38:28;95098.96;;;13.20;100.00
6096;BME280;25081;42.698;23.298;2023-05-21T00:40:38;95100.83;;;13.20;100.00
6096;BME280;25081;42.698;23.298;2023-05-21T00:42:49;95095.53;;;13.10;100.00
6096;BME280;25081;42.698;23.298;2023-05-21T00:45:00;95095.81;;;13.11;100.00
6096;BME280;25081;42.698;23.298;2023-05-21T00:47:10;95114.47;;;13.06;100.00
6096;BME280;25081;42.698;23.298;2023-05-21T00:49:21;95087.38;;;13.03;100.00
6096;BME280;25081;42.698;23.298;2023-05-21T00:51:31;95086.36;;;13.06;100.00
6096;BME280;25081;42.698;23.298;2023-05-21T00:53:42;95089.89;;;12.95;99.77
6096;BME280;25081;42.698;23.298;2023-05-21T00:55:53;95090.02;;;12.88;100.00
6096;BME280;25081;42.698;23.298;2023-05-21T00:58:03;95092.98;;;12.89;100.00
6096;BME280;25081;42.698;23.298;2023-05-21T01:00:15;95093.75;;;12.87;100.00
6096;BME280;25081;42.698;23.298;2023-05-21T01:02:25;95091.92;;;12.90;100.00
6096;BME280;25081;42.698;23.298;2023-05-21T01:04:36;95088.35;;;12.85;100.00
6096;BME280;25081;42.698;23.298;2023-05-21T01:06:46;95087.10;;;12.90;100.00
6096;BME280;25081;42.698;23.298;2023-05-21T01:08:57;95083.20;;;12.95;100.00
6096;BME280;25081;42.698;23.298;2023-05-21T01:11:07;95080.70;;;12.91;100.00
6096;BME280;25081;42.698;23.298;2023-05-21T01:13:18;95082.52;;;12.88;100.00
6096;BME280;25081;42.698;23.298;2023-05-21T01:15:28;95080.37;;;12.87;100.00
6096;BME280;25081;42.698;23.298;2023-05-21T01:17:39;95085.08;;;12.83;100.00
6096;BME280;25081;42.698;23.298;2023-05-21T01:19:49;95086.61;;;12.79;100.00
6096;BME280;25081;42.698;23.298;2023-05-21T01:22:02;95078.91;;;12.82;100.00
6096;BME280;25081;42.698;23.298;2023-05-21T01:24:12;95077.29;;;12.81;100.00
6096;BME280;25081;42.698;23.298;2023-05-21T01:26:22;95078.34;;;12.80;100.00
6096;BME280;25081;42.698;23.298;2023-05-21T01:28:33;95075.22;;;12.72;100.00
6096;BME280;25081;42.698;23.298;2023-05-21T01:30:44;95074.00;;;12.77;100.00
6096;BME280;25081;42.698;23.298;2023-05-21T01:32:57;95075.34;;;12.77;99.98
6096;BME280;25081;42.698;23.298;2023-05-21T01:35:08;95069.30;;;12.70;100.00
6096;BME280;25081;42.698;23.298;2023-05-21T01:37:20;95065.73;;;12.78;100.00
6096;BME280;25081;42.698;23.298;2023-05-21T01:39:30;95070.36;;;12.83;99.56
6096;BME280;25081;42.698;23.298;2023-05-21T01:41:40;95065.62;;;12.73;100.00
6096;BME280;25081;42.698;23.298;2023-05-21T01:43:50;95079.19;;;12.69;100.00
6096;BME280;25081;42.698;23.298;2023-05-21T01:46:01;95073.84;;;12.69;100.00
6096;BME280;25081;42.698;23.298;2023-05-21T01:48:12;95077.48;;;12.77;100.00
6096;BME280;25081;42.698;23.298;2023-05-21T01:50:23;95071.38;;;12.79;99.77
6096;BME280;25081;42.698;23.298;2023-05-21T01:52:33;95067.88;;;12.79;99.60
6096;BME280;25081;42.698;23.298;2023-05-21T01:54:44;95075.41;;;12.68;99.87
6096;BME280;25081;42.698;23.298;2023-05-21T01:56:55;95070.83;;;12.66;99.76
6096;BME280;25081;42.698;23.298;2023-05-21T01:59:05;95069.13;;;12.62;100.00
6096;BME280;25081;42.698;23.298;2023-05-21T02:01:15;95072.00;;;12.58;100.00
6096;BME280;25081;42.698;23.298;2023-05-21T02:03:26;95062.12;;;12.58;100.00
6096;BME280;25081;42.698;23.298;2023-05-21T02:05:37;95058.80;;;12.54;100.00
6096;BME280;25081;42.698;23.298;2023-05-21T02:07:50;95060.85;;;12.49;100.00
6096;BME280;25081;42.698;23.298;2023-05-21T02:09:57;95055.74;;;12.48;100.00
6096;BME280;25081;42.698;23.298;2023-05-21T02:12:09;95060.28;;;12.47;100.00
6096;BME280;25081;42.698;23.298;2023-05-21T02:14:19;95060.20;;;12.45;100.00
6096;BME280;25081;42.698;23.298;2023-05-21T02:16:30;95059.41;;;12.32;100.00
6096;BME280;25081;42.698;23.298;2023-05-21T02:18:41;95049.81;;;12.34;100.00
6096;BME280;25081;42.698;23.298;2023-05-21T02:20:52;95048.03;;;12.37;100.00
6096;BME280;25081;42.698;23.298;2023-05-21T02:23:02;95048.02;;;12.25;100.00
6096;BME280;25081;42.698;23.298;2023-05-21T02:25:13;95059.48;;;12.23;100.00
6096;BME280;25081;42.698;23.298;2023-05-21T02:27:23;95061.34;;;12.23;100.00
6096;BME280;25081;42.698;23.298;2023-05-21T02:29:34;95066.92;;;12.21;100.00
6096;BME280;25081;42.698;23.298;2023-05-21T02:31:44;95064.15;;;12.16;100.00
6096;BME280;25081;42.698;23.298;2023-05-21T02:33:55;95057.52;;;12.19;100.00
6096;BME280;25081;42.698;23.298;2023-05-21T02:36:07;95055.94;;;12.20;100.00
6096;BME280;25081;42.698;23.298;2023-05-21T02:38:19;95051.17;;;12.22;100.00
6096;BME280;25081;42.698;23.298;2023-05-21T02:40:29;95053.03;;;12.22;99.83
6096;BME280;25081;42.698;23.298;2023-05-21T02:42:40;95052.28;;;12.12;100.00
6096;BME280;25081;42.698;23.298;2023-05-21T02:44:50;95049.61;;;12.12;100.00
6096;BME280;25081;42.698;23.298;2023-05-21T02:47:01;95050.61;;;12.09;100.00
6096;BME280;25081;42.698;23.298;2023-05-21T02:49:11;95045.31;;;12.11;100.00
6096;BME280;25081;42.698;23.298;2023-05-21T02:51:22;95044.92;;;12.17;100.00
6096;BME280;25081;42.698;23.298;2023-05-21T02:53:32;95046.06;;;12.21;100.00
6096;BME280;25081;42.698;23.298;2023-05-21T02:55:43;95045.65;;;12.15;99.67
6096;BME280;25081;42.698;23.298;2023-05-21T02:57:54;95038.30;;;12.08;100.00
6096;BME280;25081;42.698;23.298;2023-05-21T03:00:06;95044.16;;;12.07;100.00
6096;BME280;25081;42.698;23.298;2023-05-21T03:02:17;95038.30;;;12.08;100.00
6096;BME280;25081;42.698;23.298;2023-05-21T03:04:27;95047.80;;;12.03;100.00
6096;BME280;25081;42.698;23.298;2023-05-21T03:06:38;95044.09;;;11.93;100.00
6096;BME280;25081;42.698;23.298;2023-05-21T03:08:48;95047.70;;;11.98;100.00
6096;BME280;25081;42.698;23.298;2023-05-21T03:10:59;95047.42;;;11.97;100.00
6096;BME280;25081;42.698;23.298;2023-05-21T03:13:09;95050.01;;;11.95;100.00
6096;BME280;25081;42.698;23.298;2023-05-21T03:15:20;95057.78;;;11.96;100.00
6096;BME280;25081;42.698;23.298;2023-05-21T03:17:32;95048.57;;;11.90;100.00
6096;BME280;25081;42.698;23.298;2023-05-21T03:19:43;95057.97;;;11.92;100.00
6096;BME280;25081;42.698;23.298;2023-05-21T03:21:53;95054.67;;;11.99;100.00
6096;BME280;25081;42.698;23.298;2023-05-21T03:24:04;95055.88;;;12.06;100.00
6096;BME280;25081;42.698;23.298;2023-05-21T03:26:15;95058.67;;;12.11;100.00
6096;BME280;25081;42.698;23.298;2023-05-21T03:28:26;95051.70;;;12.10;100.00
6096;BME280;25081;42.698;23.298;2023-05-21T03:30:36;95058.44;;;12.13;100.00
6096;BME280;25081;42.698;23.298;2023-05-21T03:32:47;95061.28;;;12.20;100.00
6096;BME280;25081;42.698;23.298;2023-05-21T03:34:59;95061.47;;;12.28;100.00
6096;BME280;25081;42.698;23.298;2023-05-21T03:37:09;95060.34;;;12.38;100.00
6096;BME280;25081;42.698;23.298;2023-05-21T03:39:20;95057.03;;;12.45;99.94
6096;BME280;25081;42.698;23.298;2023-05-21T03:41:30;95060.45;;;12.55;99.33
6096;BME280;25081;42.698;23.298;2023-05-21T03:43:40;95064.17;;;12.42;99.66
6096;BME280;25081;42.698;23.298;2023-05-21T03:45:53;95065.96;;;12.51;99.34
6096;BME280;25081;42.698;23.298;2023-05-21T03:48:02;95060.21;;;12.56;99.14
6096;BME280;25081;42.698;23.298;2023-05-21T03:50:13;95062.14;;;12.47;98.82
6096;BME280;25081;42.698;23.298;2023-05-21T03:52:23;95062.41;;;12.59;98.86
6096;BME280;25081;42.698;23.298;2023-05-21T03:54:34;95055.52;;;12.64;98.32
6096;BME280;25081;42.698;23.298;2023-05-21T03:56:45;95061.19;;;12.53;98.33
6096;BME280;25081;42.698;23.298;2023-05-21T03:58:55;95055.84;;;12.53;98.87
6096;BME280;25081;42.698;23.298;2023-05-21T04:01:06;95063.00;;;12.50;98.46
6096;BME280;25081;42.698;23.298;2023-05-21T04:03:16;95050.80;;;12.42;98.76
6096;BME280;25081;42.698;23.298;2023-05-21T04:05:27;95054.67;;;12.60;99.40
6096;BME280;25081;42.698;23.298;2023-05-21T04:07:37;95053.30;;;12.72;98.71
6096;BME280;25081;42.698;23.298;2023-05-21T04:09:48;95058.08;;;12.70;97.84
6096;BME280;25081;42.698;23.298;2023-05-21T04:11:58;95061.03;;;12.71;97.89
6096;BME280;25081;42.698;23.298;2023-05-21T04:14:09;95056.38;;;12.78;97.45
6096;BME280;25081;42.698;23.298;2023-05-21T04:16:19;95060.34;;;12.90;96.59
6096;BME280;25081;42.698;23.298;2023-05-21T04:18:30;95057.25;;;12.96;96.41
6096;BME280;25081;42.698;23.298;2023-05-21T04:20:40;95059.69;;;13.11;96.06
6096;BME280;25081;42.698;23.298;2023-05-21T04:22:51;95056.79;;;13.13;95.61
6096;BME280;25081;42.698;23.298;2023-05-21T04:25:01;95059.02;;;13.18;95.21
6096;BME280;25081;42.698;23.298;2023-05-21T04:27:12;95053.45;;;13.20;95.07
6096;BME280;25081;42.698;23.298;2023-05-21T04:29:23;95056.73;;;13.22;95.20
6096;BME280;25081;42.698;23.298;2023-05-21T04:31:33;95062.36;;;13.23;94.89
6096;BME280;25081;42.698;23.298;2023-05-21T04:33:44;95059.88;;;13.07;95.68
6096;BME280;25081;42.698;23.298;2023-05-21T04:35:55;95055.67;;;13.11;95.97
6096;BME280;25081;42.698;23.298;2023-05-21T04:38:05;95059.62;;;13.21;95.50
6096;BME280;25081;42.698;23.298;2023-05-21T04:40:16;95058.28;;;13.35;95.24
6096;BME280;25081;42.698;23.298;2023-05-21T04:42:27;95057.80;;;13.38;94.46
6096;BME280;25081;42.698;23.298;2023-05-21T04:44:38;95055.93;;;13.53;95.03
6096;BME280;25081;42.698;23.298;2023-05-21T04:46:49;95062.37;;;13.54;93.64
6096;BME280;25081;42.698;23.298;2023-05-21T04:48:59;95062.98;;;13.59;93.72
6096;BME280;25081;42.698;23.298;2023-05-21T04:51:11;95059.23;;;13.74;93.01
6096;BME280;25081;42.698;23.298;2023-05-21T04:53:22;95057.68;;;13.78;92.27
6096;BME280;25081;42.698;23.298;2023-05-21T04:55:32;95058.08;;;13.70;91.92
6096;BME280;25081;42.698;23.298;2023-05-21T04:57:43;95057.15;;;13.79;92.49
6096;BME280;25081;42.698;23.298;2023-05-21T04:59:53;95056.91;;;13.97;91.42
6096;BME280;25081;42.698;23.298;2023-05-21T05:02:04;95057.72;;;14.14;90.89
6096;BME280;25081;42.698;23.298;2023-05-21T05:04:15;95056.50;;;13.88;90.62
6096;BME280;25081;42.698;23.298;2023-05-21T05:06:25;95059.31;;;14.13;90.80
6096;BME280;25081;42.698;23.298;2023-05-21T05:08:36;95054.16;;;14.45;90.48
6096;BME280;25081;42.698;23.298;2023-05-21T05:10:46;95059.16;;;14.77;88.87
6096;BME280;25081;42.698;23.298;2023-05-21T05:12:58;95053.50;;;15.23;87.30
6096;BME280;25081;42.698;23.298;2023-05-21T05:15:09;95054.32;;;15.50;84.65
6096;BME280;25081;42.698;23.298;2023-05-21T05:17:20;95050.33;;;15.82;83.80
6096;BME280;25081;42.698;23.298;2023-05-21T05:19:30;95050.00;;;16.06;81.92
6096;BME280;25081;42.698;23.298;2023-05-21T05:21:40;95050.00;;;16.90;79.68
6096;BME280;25081;42.698;23.298;2023-05-21T05:23:51;95050.00;;;16.90;79.68
6096;BME280;25081;42.698;23.298;2023-05-21T05:26:01;95051.31;;;18.21;74.50
6096;BME280;25081;42.698;23.298;2023-05-21T05:28:12;95048.03;;;18.63;68.97
6096;BME280;25081;42.698;23.298;2023-05-21T05:30:22;95044.78;;;18.71;67.91
6096;BME280;25081;42.698;23.298;2023-05-21T05:32:33;95049.42;;;18.45;68.20
6096;BME280;25081;42.698;23.298;2023-05-21T05:34:44;95048.63;;;18.11;67.92
6096;BME280;25081;42.698;23.298;2023-05-21T05:36:54;95042.97;;;18.15;68.57
6096;BME280;25081;42.698;23.298;2023-05-21T05:39:05;95043.49;;;18.05;69.25
6096;BME280;25081;42.698;23.298;2023-05-21T05:41:16;95047.27;;;18.03;68.92
6096;BME280;25081;42.698;23.298;2023-05-21T05:43:26;95040.53;;;18.26;68.07
6096;BME280;25081;42.698;23.298;2023-05-21T05:45:37;95042.09;;;18.58;68.25
6096;BME280;25081;42.698;23.298;2023-05-21T05:47:47;95038.21;;;18.97;66.78
6096;BME280;25081;42.698;23.298;2023-05-21T05:50:00;95033.55;;;19.10;64.36
6096;BME280;25081;42.698;23.298;2023-05-21T05:52:10;95033.88;;;19.04;65.52
6096;BME280;25081;42.698;23.298;2023-05-21T05:54:21;95036.38;;;19.39;64.49
6096;BME280;25081;42.698;23.298;2023-05-21T05:56:32;95027.26;;;20.11;62.08
6096;BME280;25081;42.698;23.298;2023-05-21T05:58:42;95030.34;;;20.86;58.96
6096;BME280;25081;42.698;23.298;2023-05-21T06:00:53;95031.48;;;20.80;58.53
6096;BME280;25081;42.698;23.298;2023-05-21T06:03:03;95034.89;;;20.65;58.00
6096;BME280;25081;42.698;23.298;2023-05-21T06:05:14;95034.62;;;20.90;58.75
6096;BME280;25081;42.698;23.298;2023-05-21T06:07:24;95036.02;;;21.54;57.08
6096;BME280;25081;42.698;23.298;2023-05-21T06:09:35;95025.39;;;23.16;52.23
6096;BME280;25081;42.698;23.298;2023-05-21T06:11:46;95026.90;;;24.33;49.30
6096;BME280;25081;42.698;23.298;2023-05-21T06:13:56;95023.48;;;23.16;50.04
6096;BME280;25081;42.698;23.298;2023-05-21T06:16:08;95026.20;;;23.16;49.79
6096;BME280;25081;42.698;23.298;2023-05-21T06:18:19;95022.50;;;23.64;47.24
6096;BME280;25081;42.698;23.298;2023-05-21T06:20:29;95015.98;;;24.44;46.60
6096;BME280;25081;42.698;23.298;2023-05-21T06:22:40;95013.06;;;25.68;44.64
6096;BME280;25081;42.698;23.298;2023-05-21T06:24:50;95009.25;;;25.40;43.20
6096;BME280;25081;42.698;23.298;2023-05-21T06:27:01;95013.95;;;23.30;43.31
6096;BME280;25081;42.698;23.298;2023-05-21T06:29:11;95013.09;;;23.32;46.01
6096;BME280;25081;42.698;23.298;2023-05-21T06:31:22;95007.55;;;23.87;44.63
6096;BME280;25081;42.698;23.298;2023-05-21T06:33:32;95012.90;;;22.43;47.99
6096;BME280;25081;42.698;23.298;2023-05-21T06:35:43;95012.50;;;20.27;51.98
6096;BME280;25081;42.698;23.298;2023-05-21T06:37:53;95020.62;;;19.05;54.34
6096;BME280;25081;42.698;23.298;2023-05-21T06:40:05;95018.66;;;19.67;52.80
6096;BME280;25081;42.698;23.298;2023-05-21T06:42:15;95020.06;;;19.08;55.45
6096;BME280;25081;42.698;23.298;2023-05-21T06:44:26;95012.41;;;18.53;56.49
6096;BME280;25081;42.698;23.298;2023-05-21T06:46:37;95010.25;;;18.42;57.61
6096;BME280;25081;42.698;23.298;2023-05-21T06:48:47;95006.14;;;18.78;57.36
6096;BME280;25081;42.698;23.298;2023-05-21T06:50:57;95010.28;;;18.37;57.86
6096;BME280;25081;42.698;23.298;2023-05-21T06:53:08;95010.86;;;18.01;58.62
6096;BME280;25081;42.698;23.298;2023-05-21T06:55:19;95004.00;;;18.75;57.24
6096;BME280;25081;42.698;23.298;2023-05-21T06:57:29;95010.53;;;18.46;56.86
6096;BME280;25081;42.698;23.298;2023-05-21T06:59:40;95006.41;;;18.79;56.42
6096;BME280;25081;42.698;23.298;2023-05-21T07:01:51;95007.56;;;19.20;55.03
6096;BME280;25081;42.698;23.298;2023-05-21T07:04:01;95003.59;;;19.56;53.03
6096;BME280;25081;42.698;23.298;2023-05-21T07:06:12;95003.76;;;19.72;52.08
6096;BME280;25081;42.698;23.298;2023-05-21T07:08:22;94996.07;;;20.16;51.08
6096;BME280;25081;42.698;23.298;2023-05-21T07:10:33;94992.64;;;21.33;48.58
6096;BME280;25081;42.698;23.298;2023-05-21T07:12:44;94995.63;;;21.50;46.95
6096;BME280;25081;42.698;23.298;2023-05-21T07:14:54;94995.05;;;22.23;46.14
6096;BME280;25081;42.698;23.298;2023-05-21T07:17:05;94998.95;;;21.98;45.68
6096;BME280;25081;42.698;23.298;2023-05-21T07:19:16;94991.55;;;21.69;45.78
6096;BME280;25081;42.698;23.298;2023-05-21T07:21:26;94993.81;;;21.81;46.55
6096;BME280;25081;42.698;23.298;2023-05-21T07:23:37;94991.85;;;21.67;47.07
6096;BME280;25081;42.698;23.298;2023-05-21T07:25:47;94998.27;;;20.70;48.51
6096;BME280;25081;42.698;23.298;2023-05-21T07:27:58;94994.88;;;20.01;51.35
6096;BME280;25081;42.698;23.298;2023-05-21T07:30:10;94999.05;;;20.97;49.64
6096;BME280;25081;42.698;23.298;2023-05-21T07:32:21;94994.41;;;21.42;47.42
6096;BME280;25081;42.698;23.298;2023-05-21T07:34:31;95000.25;;;21.68;46.83
6096;BME280;25081;42.698;23.298;2023-05-21T07:36:42;94992.76;;;22.31;46.05
6096;BME280;25081;42.698;23.298;2023-05-21T07:38:52;94995.05;;;22.67;45.82
6096;BME280;25081;42.698;23.298;2023-05-21T07:41:03;94996.34;;;22.42;46.37
6096;BME280;25081;42.698;23.298;2023-05-21T07:43:13;94995.75;;;22.29;45.63
6096;BME280;25081;42.698;23.298;2023-05-21T07:45:24;94987.09;;;23.01;44.19
6096;BME280;25081;42.698;23.298;2023-05-21T07:47:35;94964.63;;;23.09;44.28
6096;BME280;25081;42.698;23.298;2023-05-21T07:49:45;94986.58;;;24.83;40.38
6096;BME280;25081;42.698;23.298;2023-05-21T07:51:56;94997.70;;;23.27;43.46
6096;BME280;25081;42.698;23.298;2023-05-21T07:54:06;94987.31;;;24.13;42.38
6096;BME280;25081;42.698;23.298;2023-05-21T07:56:17;94985.89;;;23.32;43.69
6096;BME280;25081;42.698;23.298;2023-05-21T07:58:27;94988.45;;;22.57;45.74
6096;BME280;25081;42.698;23.298;2023-05-21T08:00:43;94986.91;;;21.88;47.54
6096;BME280;25081;42.698;23.298;2023-05-21T08:02:53;94973.27;;;23.75;45.78
6096;BME280;25081;42.698;23.298;2023-05-21T08:05:05;94978.72;;;24.62;43.38
6096;BME280;25081;42.698;23.298;2023-05-21T08:07:16;94973.47;;;25.77;39.44
6096;BME280;25081;42.698;23.298;2023-05-21T08:09:26;94972.41;;;24.92;40.70
6096;BME280;25081;42.698;23.298;2023-05-21T08:11:37;94973.06;;;22.66;40.45
6096;BME280;25081;42.698;23.298;2023-05-21T08:13:47;94978.23;;;23.09;43.47
6096;BME280;25081;42.698;23.298;2023-05-21T08:15:58;94994.11;;;21.44;40.61
6096;BME280;25081;42.698;23.298;2023-05-21T08:18:08;94986.49;;;20.29;42.52
6096;BME280;25081;42.698;23.298;2023-05-21T08:20:19;94988.80;;;20.41;41.36
6096;BME280;25081;42.698;23.298;2023-05-21T08:22:29;95000.32;;;21.02;40.29
6096;BME280;25081;42.698;23.298;2023-05-21T08:24:40;94994.61;;;21.27;39.83
6096;BME280;25081;42.698;23.298;2023-05-21T08:26:50;94984.55;;;21.84;38.60
6096;BME280;25081;42.698;23.298;2023-05-21T08:29:01;94981.88;;;22.74;37.74
6096;BME280;25081;42.698;23.298;2023-05-21T08:31:11;94977.63;;;23.37;36.45
6096;BME280;25081;42.698;23.298;2023-05-21T08:33:22;94999.83;;;22.29;36.69
6096;BME280;25081;42.698;23.298;2023-05-21T08:35:32;94985.56;;;22.05;37.35
6096;BME280;25081;42.698;23.298;2023-05-21T08:37:43;94986.17;;;23.19;35.70
6096;BME280;25081;42.698;23.298;2023-05-21T08:39:53;95001.84;;;21.72;38.11
6096;BME280;25081;42.698;23.298;2023-05-21T08:42:08;94993.79;;;21.05;38.58
6096;BME280;25081;42.698;23.298;2023-05-21T08:44:18;94981.05;;;20.84;38.72
6096;BME280;25081;42.698;23.298;2023-05-21T08:46:28;94983.52;;;21.96;37.46
6096;BME280;25081;42.698;23.298;2023-05-21T08:48:38;94974.23;;;23.18;34.81
6096;BME280;25081;42.698;23.298;2023-05-21T08:50:49;94991.23;;;22.08;35.93
6096;BME280;25081;42.698;23.298;2023-05-21T08:52:59;94983.23;;;23.16;34.46
6096;BME280;25081;42.698;23.298;2023-05-21T08:55:10;94977.77;;;23.68;33.50
6096;BME280;25081;42.698;23.298;2023-05-21T08:57:21;94981.59;;;23.03;34.86
6096;BME280;25081;42.698;23.298;2023-05-21T08:59:31;94996.89;;;21.93;36.38
6096;BME280;25081;42.698;23.298;2023-05-21T09:01:42;94979.48;;;21.78;36.57
6096;BME280;25081;42.698;23.298;2023-05-21T09:03:53;94974.27;;;23.15;34.25
6096;BME280;25081;42.698;23.298;2023-05-21T09:06:03;94983.52;;;23.53;34.37
6096;BME280;25081;42.698;23.298;2023-05-21T09:08:16;94960.17;;;23.13;34.69
6096;BME280;25081;42.698;23.298;2023-05-21T09:10:25;94978.19;;;23.23;35.43
6096;BME280;25081;42.698;23.298;2023-05-21T09:12:35;94984.84;;;22.75;35.11
6096;BME280;25081;42.698;23.298;2023-05-21T09:14:46;94983.63;;;21.91;37.34
6096;BME280;25081;42.698;23.298;2023-05-21T09:16:57;94973.06;;;23.21;35.79
6096;BME280;25081;42.698;23.298;2023-05-21T09:19:07;94968.18;;;22.66;37.06
6096;BME280;25081;42.698;23.298;2023-05-21T09:21:24;94981.91;;;21.44;39.94
6096;BME280;25081;42.698;23.298;2023-05-21T09:23:35;94976.59;;;21.12;40.91
6096;BME280;25081;42.698;23.298;2023-05-21T09:25:46;94980.96;;;21.32;40.67
6096;BME280;25081;42.698;23.298;2023-05-21T09:27:56;94981.48;;;22.37;38.10
6096;BME280;25081;42.698;23.298;2023-05-21T09:30:10;94979.91;;;22.50;37.25
6096;BME280;25081;42.698;23.298;2023-05-21T09:32:20;94980.30;;;22.43;37.45
6096;BME280;25081;42.698;23.298;2023-05-21T09:34:30;94975.96;;;22.86;36.31
6096;BME280;25081;42.698;23.298;2023-05-21T09:36:41;94989.87;;;22.08;37.93
6096;BME280;25081;42.698;23.298;2023-05-21T09:38:51;94968.77;;;22.93;37.09
6096;BME280;25081;42.698;23.298;2023-05-21T09:41:04;94968.41;;;23.83;35.42
6096;BME280;25081;42.698;23.298;2023-05-21T09:43:15;94974.14;;;23.34;34.09
6096;BME280;25081;42.698;23.298;2023-05-21T09:45:27;94985.67;;;22.16;35.05
6096;BME280;25081;42.698;23.298;2023-05-21T09:47:40;94971.86;;;21.61;35.82
6096;BME280;25081;42.698;23.298;2023-05-21T09:49:51;94975.42;;;21.42;36.00
6096;BME280;25081;42.698;23.298;2023-05-21T09:52:02;94973.32;;;21.37;36.97
6096;BME280;25081;42.698;23.298;2023-05-21T09:54:12;94975.64;;;21.81;35.81
6096;BME280;25081;42.698;23.298;2023-05-21T09:56:24;94974.53;;;21.26;35.25
6096;BME280;25081;42.698;23.298;2023-05-21T09:58:35;94967.57;;;22.11;35.22
6096;BME280;25081;42.698;23.298;2023-05-21T10:00:46;94967.36;;;22.05;36.20
6096;BME280;25081;42.698;23.298;2023-05-21T10:02:57;94981.17;;;21.90;35.68
6096;BME280;25081;42.698;23.298;2023-05-21T10:05:08;94978.77;;;21.88;36.52
6096;BME280;25081;42.698;23.298;2023-05-21T10:07:19;94966.84;;;21.52;36.62
6096;BME280;25081;42.698;23.298;2023-05-21T10:09:30;94951.67;;;23.17;34.47
6096;BME280;25081;42.698;23.298;2023-05-21T10:11:41;94954.45;;;22.73;34.89
6096;BME280;25081;42.698;23.298;2023-05-21T10:13:53;94955.63;;;21.93;36.26
6096;BME280;25081;42.698;23.298;2023-05-21T10:16:02;94956.37;;;22.87;35.06
6096;BME280;25081;42.698;23.298;2023-05-21T10:18:13;94957.42;;;22.61;35.08
6096;BME280;25081;42.698;23.298;2023-05-21T10:20:23;94950.16;;;22.56;35.36
6096;BME280;25081;42.698;23.298;2023-05-21T10:22:34;94960.73;;;22.14;35.27
6096;BME280;25081;42.698;23.298;2023-05-21T10:24:44;94949.46;;;22.64;34.73
6096;BME280;25081;42.698;23.298;2023-05-21T10:26:55;94939.66;;;22.79;34.57
6096;BME280;25081;42.698;23.298;2023-05-21T10:29:06;94943.30;;;22.89;34.31
6096;BME280;25081;42.698;23.298;2023-05-21T10:31:16;94947.33;;;21.68;36.86
6096;BME280;25081;42.698;23.298;2023-05-21T10:33:27;94941.58;;;21.37;36.41
6096;BME280;25081;42.698;23.298;2023-05-21T10:35:38;94951.54;;;21.77;36.34
6096;BME280;25081;42.698;23.298;2023-05-21T10:37:48;94947.20;;;21.41;37.22
6096;BME280;25081;42.698;23.298;2023-05-21T10:39:59;94954.08;;;20.93;38.07
6096;BME280;25081;42.698;23.298;2023-05-21T10:42:17;94945.48;;;20.67;38.42
6096;BME280;25081;42.698;23.298;2023-05-21T10:44:29;94947.85;;;20.93;38.04
6096;BME280;25081;42.698;23.298;2023-05-21T10:47:10;94950.69;;;21.23;37.23
6096;BME280;25081;42.698;23.298;2023-05-21T10:49:32;94944.66;;;21.98;37.16
6096;BME280;25081;42.698;23.298;2023-05-21T10:51:44;94944.34;;;21.51;37.73
6096;BME280;25081;42.698;23.298;2023-05-21T10:54:07;94947.66;;;21.08;38.63
6096;BME280;25081;42.698;23.298;2023-05-21T10:56:17;94946.38;;;21.22;38.79
6096;BME280;25081;42.698;23.298;2023-05-21T10:59:03;94946.38;;;21.22;39.01
6096;BME280;25081;42.698;23.298;2023-05-21T11:01:13;94944.99;;;21.27;38.66
6096;BME280;25081;42.698;23.298;2023-05-21T11:03:23;94948.56;;;20.58;40.23
6096;BME280;25081;42.698;23.298;2023-05-21T11:05:40;94945.19;;;20.69;40.31
6096;BME280;25081;42.698;23.298;2023-05-21T11:07:51;94949.45;;;20.96;39.92
6096;BME280;25081;42.698;23.298;2023-05-21T11:10:31;94942.14;;;20.73;40.50
6096;BME280;25081;42.698;23.298;2023-05-21T11:13:10;94938.63;;;20.72;41.16
6096;BME280;25081;42.698;23.298;2023-05-21T11:15:21;94945.23;;;20.66;40.89
6096;BME280;25081;42.698;23.298;2023-05-21T11:17:37;94939.68;;;20.52;41.48
6096;BME280;25081;42.698;23.298;2023-05-21T11:19:47;94939.42;;;20.75;40.50
6096;BME280;25081;42.698;23.298;2023-05-21T11:21:58;94937.47;;;21.00;40.38
6096;BME280;25081;42.698;23.298;2023-05-21T11:24:09;94931.19;;;21.42;40.30
6096;BME280;25081;42.698;23.298;2023-05-21T11:26:19;94936.70;;;21.37;40.05
6096;BME280;25081;42.698;23.298;2023-05-21T11:28:33;94935.66;;;20.71;41.04
6096;BME280;25081;42.698;23.298;2023-05-21T11:30:44;94937.91;;;20.64;41.64
6096;BME280;25081;42.698;23.298;2023-05-21T11:33:18;94922.75;;;20.66;41.42